University Center, MI

4:32 AM EDT on August 29, 2015 (GMT -0400)
Delta College | | Change Station
CLOSE
Current Station
Personal Weather Station
Location: University Center, MI
Elevation: 637 ft
Nearby Weather Stations

Elev 637 ft 43.56 °N, 83.99 °W | Updated 1 minute ago

Rain
Rain
62.8 °F
Feels Like 62.8 °F
N
0.0
Wind Variable Wind from WSW
Gusts 0.0 mph

Today
High -- | Low -- °F
--% Chance of Precip.
Yesterday
High -- | Low -- °F
Precip. -- in
6:56 AM 8:16 PM
Full, 100% visible
Pressure 30.13 in
Visibility 10.0 miles
Clouds Few 5000 ft
Few 6500 ft
Mostly Cloudy 11000 ft
Dew Point 61 °F
Humidity 93%
Rainfall 0.02 in
Snow Depth Not available.
UV 0 out of 12
Pollen 10.00 out of 12
Air Quality Not available.
Flu Activity Not available.
METAR KMBS 290753Z 25005KT 10SM FEW050 FEW065 BKN110 18/16 A3014 RMK AO2 RAE35 SLP203 P0000 T01780156
Pressure 30.13 in
Visibility 10.0 miles
Clouds Few 5000 ft
Few 6500 ft
Mostly Cloudy 11000 ft
Dew Point 61 °F
Humidity 93%
Rainfall 0.02 in
Snow Depth Not available.
UV 0 out of 12
Pollen 10.00 out of 12
Air Quality Not available.
Flu Activity Not available.
METAR KMBS 290753Z 25005KT 10SM FEW050 FEW065 BKN110 18/16 A3014 RMK AO2 RAE35 SLP203 P0000 T01780156

10-Day Weather Forecast

×

Almanac

Astronomy

Aug. 29, 2015 Rise Set
Actual Time
Civil Twilight
Nautical Twilight
Astronomical Twilight
Moon
Length of Visible Light
Length of Day
Tomorrow will be .
, % of the Moon is Illuminated

Today's Extremes

State Highs State Lows

Community

WunderPhotos

Upload Photos

1,850,634 photos uploaded!

WunderBlogs® & News

Nearby

Air Quality

  Air Quality AQ Index Pollutant
Not available.

Snow Depth

Station Depth Elevation

Earthquake Activity

City Distance Mag. Time & Date
Minimum magnitude displayed is 2.5.

Coastal Water Temperatures

Place Temperature

Stations

Nearby Weather Stations

Station Location Temp. Windchill Dew Point Humidity Wind Precip. Elev Updated Type